sensor_id;sensor_type;location;lat;lon;timestamp;temperature;humidity
49731;DHT22;35622;52.008;5.426;2023-04-24T00:01:39;13.80;92.10
49731;DHT22;35622;52.008;5.426;2023-04-24T00:04:06;13.80;92.10
49731;DHT22;35622;52.008;5.426;2023-04-24T00:06:32;13.80;92.30
49731;DHT22;35622;52.008;5.426;2023-04-24T00:09:03;13.80;92.40
49731;DHT22;35622;52.008;5.426;2023-04-24T00:11:29;13.70;92.70
49731;DHT22;35622;52.008;5.426;2023-04-24T00:13:55;13.70;92.70
49731;DHT22;35622;52.008;5.426;2023-04-24T00:16:21;13.70;92.90
49731;DHT22;35622;52.008;5.426;2023-04-24T00:18:47;13.70;92.90
49731;DHT22;35622;52.008;5.426;2023-04-24T00:21:16;13.70;92.80
49731;DHT22;35622;52.008;5.426;2023-04-24T00:23:43;13.70;92.90
49731;DHT22;35622;52.008;5.426;2023-04-24T00:26:09;13.80;92.90
49731;DHT22;35622;52.008;5.426;2023-04-24T00:28:34;13.70;93.00
49731;DHT22;35622;52.008;5.426;2023-04-24T00:31:00;13.80;92.90
49731;DHT22;35622;52.008;5.426;2023-04-24T00:33:26;13.70;92.90
49731;DHT22;35622;52.008;5.426;2023-04-24T00:35:51;13.70;92.80
49731;DHT22;35622;52.008;5.426;2023-04-24T00:38:17;13.70;92.80
49731;DHT22;35622;52.008;5.426;2023-04-24T00:40:42;13.70;92.90
49731;DHT22;35622;52.008;5.426;2023-04-24T00:43:08;13.70;92.90
49731;DHT22;35622;52.008;5.426;2023-04-24T00:45:34;13.80;92.90
49731;DHT22;35622;52.008;5.426;2023-04-24T00:48:00;13.80;92.80
49731;DHT22;35622;52.008;5.426;2023-04-24T00:50:26;13.80;93.00
49731;DHT22;35622;52.008;5.426;2023-04-24T00:52:52;13.90;93.00
49731;DHT22;35622;52.008;5.426;2023-04-24T00:55:18;14.00;93.00
49731;DHT22;35622;52.008;5.426;2023-04-24T00:57:44;13.90;93.00
49731;DHT22;35622;52.008;5.426;2023-04-24T01:00:10;13.90;92.90
49731;DHT22;35622;52.008;5.426;2023-04-24T01:02:39;13.90;92.80
49731;DHT22;35622;52.008;5.426;2023-04-24T01:05:07;13.90;92.80
49731;DHT22;35622;52.008;5.426;2023-04-24T01:07:32;14.00;92.80
49731;DHT22;35622;52.008;5.426;2023-04-24T01:09:58;14.00;92.70
49731;DHT22;35622;52.008;5.426;2023-04-24T01:12:24;14.00;92.70
49731;DHT22;35622;52.008;5.426;2023-04-24T01:14:50;13.90;92.40
49731;DHT22;35622;52.008;5.426;2023-04-24T01:17:16;13.90;92.70
49731;DHT22;35622;52.008;5.426;2023-04-24T01:19:42;13.90;92.70
49731;DHT22;35622;52.008;5.426;2023-04-24T01:22:16;13.90;92.70
49731;DHT22;35622;52.008;5.426;2023-04-24T01:24:42;13.90;92.90
49731;DHT22;35622;52.008;5.426;2023-04-24T01:27:09;13.90;92.90
49731;DHT22;35622;52.008;5.426;2023-04-24T01:29:36;14.00;92.90
49731;DHT22;35622;52.008;5.426;2023-04-24T01:32:03;13.90;92.80
49731;DHT22;35622;52.008;5.426;2023-04-24T01:34:29;14.00;92.80
49731;DHT22;35622;52.008;5.426;2023-04-24T01:36:55;14.00;92.80
49731;DHT22;35622;52.008;5.426;2023-04-24T01:39:22;14.00;92.90
49731;DHT22;35622;52.008;5.426;2023-04-24T01:41:51;14.00;92.80
49731;DHT22;35622;52.008;5.426;2023-04-24T01:44:17;14.10;92.80
49731;DHT22;35622;52.008;5.426;2023-04-24T01:46:43;14.10;92.70
49731;DHT22;35622;52.008;5.426;2023-04-24T01:49:09;14.10;92.40
49731;DHT22;35622;52.008;5.426;2023-04-24T01:51:36;14.00;92.50
49731;DHT22;35622;52.008;5.426;2023-04-24T01:54:03;14.10;92.70
49731;DHT22;35622;52.008;5.426;2023-04-24T01:56:29;14.10;92.60
49731;DHT22;35622;52.008;5.426;2023-04-24T01:58:55;14.20;92.60
49731;DHT22;35622;52.008;5.426;2023-04-24T02:01:23;14.10;92.40
49731;DHT22;35622;52.008;5.426;2023-04-24T02:03:49;14.20;92.40
49731;DHT22;35622;52.008;5.426;2023-04-24T02:06:15;14.10;92.40
49731;DHT22;35622;52.008;5.426;2023-04-24T02:08:41;14.10;92.50
49731;DHT22;35622;52.008;5.426;2023-04-24T02:11:08;14.10;92.40
49731;DHT22;35622;52.008;5.426;2023-04-24T02:13:34;14.10;92.50
49731;DHT22;35622;52.008;5.426;2023-04-24T02:15:59;14.20;92.60
49731;DHT22;35622;52.008;5.426;2023-04-24T02:18:25;14.10;92.60
49731;DHT22;35622;52.008;5.426;2023-04-24T02:20:51;13.90;92.60
49731;DHT22;35622;52.008;5.426;2023-04-24T02:23:16;13.90;92.80
49731;DHT22;35622;52.008;5.426;2023-04-24T02:25:42;13.90;92.90
49731;DHT22;35622;52.008;5.426;2023-04-24T02:28:07;14.00;92.80
49731;DHT22;35622;52.008;5.426;2023-04-24T02:30:33;14.00;92.70
49731;DHT22;35622;52.008;5.426;2023-04-24T02:32:58;14.10;92.70
49731;DHT22;35622;52.008;5.426;2023-04-24T02:35:24;14.10;92.70
49731;DHT22;35622;52.008;5.426;2023-04-24T02:37:50;13.90;92.60
49731;DHT22;35622;52.008;5.426;2023-04-24T02:40:16;13.90;92.90
49731;DHT22;35622;52.008;5.426;2023-04-24T02:42:41;13.90;93.10
49731;DHT22;35622;52.008;5.426;2023-04-24T02:45:07;13.90;93.20
49731;DHT22;35622;52.008;5.426;2023-04-24T02:47:33;14.00;93.20
49731;DHT22;35622;52.008;5.426;2023-04-24T02:49:58;14.00;93.10
49731;DHT22;35622;52.008;5.426;2023-04-24T02:52:24;14.10;93.00
49731;DHT22;35622;52.008;5.426;2023-04-24T02:54:50;14.10;93.00
49731;DHT22;35622;52.008;5.426;2023-04-24T02:57:15;14.00;93.00
49731;DHT22;35622;52.008;5.426;2023-04-24T02:59:41;14.10;93.00
49731;DHT22;35622;52.008;5.426;2023-04-24T03:02:06;14.10;93.00
49731;DHT22;35622;52.008;5.426;2023-04-24T03:04:32;14.10;93.00
49731;DHT22;35622;52.008;5.426;2023-04-24T03:06:58;14.10;92.70
49731;DHT22;35622;52.008;5.426;2023-04-24T03:09:24;13.80;93.00
49731;DHT22;35622;52.008;5.426;2023-04-24T03:11:50;13.80;93.10
49731;DHT22;35622;52.008;5.426;2023-04-24T03:14:16;13.80;93.30
49731;DHT22;35622;52.008;5.426;2023-04-24T03:16:42;13.70;93.30
49731;DHT22;35622;52.008;5.426;2023-04-24T03:19:07;13.70;93.90
49731;DHT22;35622;52.008;5.426;2023-04-24T03:21:33;13.50;94.00
49731;DHT22;35622;52.008;5.426;2023-04-24T03:24:01;13.60;94.20
49731;DHT22;35622;52.008;5.426;2023-04-24T03:26:27;13.70;94.10
49731;DHT22;35622;52.008;5.426;2023-04-24T03:28:53;13.70;94.00
49731;DHT22;35622;52.008;5.426;2023-04-24T03:31:18;13.70;94.10
49731;DHT22;35622;52.008;5.426;2023-04-24T03:33:46;13.80;94.20
49731;DHT22;35622;52.008;5.426;2023-04-24T03:36:15;13.80;94.10
49731;DHT22;35622;52.008;5.426;2023-04-24T03:38:43;13.80;94.10
49731;DHT22;35622;52.008;5.426;2023-04-24T03:41:08;13.80;94.20
49731;DHT22;35622;52.008;5.426;2023-04-24T03:43:34;13.80;94.20
49731;DHT22;35622;52.008;5.426;2023-04-24T03:46:01;13.90;94.30
49731;DHT22;35622;52.008;5.426;2023-04-24T03:48:27;14.00;94.00
49731;DHT22;35622;52.008;5.426;2023-04-24T03:50:53;14.00;94.00
49731;DHT22;35622;52.008;5.426;2023-04-24T03:53:18;14.00;93.90
49731;DHT22;35622;52.008;5.426;2023-04-24T03:55:45;14.10;93.90
49731;DHT22;35622;52.008;5.426;2023-04-24T03:58:11;14.00;93.70
49731;DHT22;35622;52.008;5.426;2023-04-24T04:00:36;14.00;93.60
49731;DHT22;35622;52.008;5.426;2023-04-24T04:03:03;14.00;93.60
49731;DHT22;35622;52.008;5.426;2023-04-24T04:05:29;14.00;93.50
49731;DHT22;35622;52.008;5.426;2023-04-24T04:07:54;13.90;93.30
49731;DHT22;35622;52.008;5.426;2023-04-24T04:10:20;13.80;93.40
49731;DHT22;35622;52.008;5.426;2023-04-24T04:12:46;13.80;93.40
49731;DHT22;35622;52.008;5.426;2023-04-24T04:15:11;13.80;93.20
49731;DHT22;35622;52.008;5.426;2023-04-24T04:17:37;13.80;93.30
49731;DHT22;35622;52.008;5.426;2023-04-24T04:20:04;13.80;93.10
49731;DHT22;35622;52.008;5.426;2023-04-24T04:22:34;13.70;93.10
49731;DHT22;35622;52.008;5.426;2023-04-24T04:24:59;13.70;93.20
49731;DHT22;35622;52.008;5.426;2023-04-24T04:27:25;13.80;93.20
49731;DHT22;35622;52.008;5.426;2023-04-24T04:29:51;13.80;93.20
49731;DHT22;35622;52.008;5.426;2023-04-24T04:32:16;13.80;93.10
49731;DHT22;35622;52.008;5.426;2023-04-24T04:34:42;13.80;93.10
49731;DHT22;35622;52.008;5.426;2023-04-24T04:37:08;13.90;93.10
49731;DHT22;35622;52.008;5.426;2023-04-24T04:39:34;13.90;93.10
49731;DHT22;35622;52.008;5.426;2023-04-24T04:41:59;13.80;93.00
49731;DHT22;35622;52.008;5.426;2023-04-24T04:44:25;13.80;92.90
49731;DHT22;35622;52.008;5.426;2023-04-24T04:46:53;13.70;93.00
49731;DHT22;35622;52.008;5.426;2023-04-24T04:49:21;13.80;93.20
49731;DHT22;35622;52.008;5.426;2023-04-24T04:51:49;13.80;93.20
49731;DHT22;35622;52.008;5.426;2023-04-24T04:54:16;13.90;93.20
49731;DHT22;35622;52.008;5.426;2023-04-24T04:56:41;13.90;93.10
49731;DHT22;35622;52.008;5.426;2023-04-24T04:59:07;13.90;93.10
49731;DHT22;35622;52.008;5.426;2023-04-24T05:01:33;13.90;93.10
49731;DHT22;35622;52.008;5.426;2023-04-24T05:03:58;14.00;93.10
49731;DHT22;35622;52.008;5.426;2023-04-24T05:06:24;14.00;92.90
49731;DHT22;35622;52.008;5.426;2023-04-24T05:08:50;14.00;92.90
49731;DHT22;35622;52.008;5.426;2023-04-24T05:11:16;14.00;92.90
49731;DHT22;35622;52.008;5.426;2023-04-24T05:13:43;14.00;92.90
49731;DHT22;35622;52.008;5.426;2023-04-24T05:16:08;14.00;92.80
49731;DHT22;35622;52.008;5.426;2023-04-24T05:18:34;14.10;92.70
49731;DHT22;35622;52.008;5.426;2023-04-24T05:20:59;14.10;92.60
49731;DHT22;35622;52.008;5.426;2023-04-24T05:23:25;14.10;92.60
49731;DHT22;35622;52.008;5.426;2023-04-24T05:25:50;14.00;92.60
49731;DHT22;35622;52.008;5.426;2023-04-24T05:28:16;14.10;92.80
49731;DHT22;35622;52.008;5.426;2023-04-24T05:30:41;14.10;92.70
49731;DHT22;35622;52.008;5.426;2023-04-24T05:33:07;14.10;92.70
49731;DHT22;35622;52.008;5.426;2023-04-24T05:35:34;14.20;92.70
49731;DHT22;35622;52.008;5.426;2023-04-24T05:38:00;14.20;92.70
49731;DHT22;35622;52.008;5.426;2023-04-24T05:40:25;14.30;92.80
49731;DHT22;35622;52.008;5.426;2023-04-24T05:42:51;14.40;92.70
49731;DHT22;35622;52.008;5.426;2023-04-24T05:45:16;14.40;92.70
49731;DHT22;35622;52.008;5.426;2023-04-24T05:47:43;14.50;92.60
49731;DHT22;35622;52.008;5.426;2023-04-24T05:50:11;14.50;92.50
49731;DHT22;35622;52.008;5.426;2023-04-24T05:52:37;14.50;92.30
49731;DHT22;35622;52.008;5.426;2023-04-24T05:55:03;14.60;92.30
49731;DHT22;35622;52.008;5.426;2023-04-24T05:57:29;14.60;92.30
49731;DHT22;35622;52.008;5.426;2023-04-24T05:59:55;14.60;92.20
49731;DHT22;35622;52.008;5.426;2023-04-24T06:02:21;14.60;92.10
49731;DHT22;35622;52.008;5.426;2023-04-24T06:04:47;14.50;92.00
49731;DHT22;35622;52.008;5.426;2023-04-24T06:07:13;14.50;92.50
49731;DHT22;35622;52.008;5.426;2023-04-24T06:09:38;14.50;92.00
49731;DHT22;35622;52.008;5.426;2023-04-24T06:12:04;14.50;91.80
49731;DHT22;35622;52.008;5.426;2023-04-24T06:14:30;14.40;91.70
49731;DHT22;35622;52.008;5.426;2023-04-24T06:16:55;14.40;91.90
49731;DHT22;35622;52.008;5.426;2023-04-24T06:19:21;14.40;91.80
49731;DHT22;35622;52.008;5.426;2023-04-24T06:21:46;14.30;91.70
49731;DHT22;35622;52.008;5.426;2023-04-24T06:24:14;14.30;91.60
49731;DHT22;35622;52.008;5.426;2023-04-24T06:26:41;14.20;91.60
49731;DHT22;35622;52.008;5.426;2023-04-24T06:29:07;14.10;91.70
49731;DHT22;35622;52.008;5.426;2023-04-24T06:31:33;14.20;91.80
49731;DHT22;35622;52.008;5.426;2023-04-24T06:34:02;14.00;91.80
49731;DHT22;35622;52.008;5.426;2023-04-24T06:36:28;14.00;92.00
49731;DHT22;35622;52.008;5.426;2023-04-24T06:38:54;14.00;92.00
49731;DHT22;35622;52.008;5.426;2023-04-24T06:41:19;14.00;92.10
49731;DHT22;35622;52.008;5.426;2023-04-24T06:43:45;14.00;91.90
49731;DHT22;35622;52.008;5.426;2023-04-24T06:46:11;14.00;92.00
49731;DHT22;35622;52.008;5.426;2023-04-24T06:48:37;14.00;92.00
49731;DHT22;35622;52.008;5.426;2023-04-24T06:51:03;14.00;92.10
49731;DHT22;35622;52.008;5.426;2023-04-24T06:53:28;13.90;91.80
49731;DHT22;35622;52.008;5.426;2023-04-24T06:55:54;13.90;92.00
49731;DHT22;35622;52.008;5.426;2023-04-24T06:58:20;14.00;91.90
49731;DHT22;35622;52.008;5.426;2023-04-24T07:00:45;14.00;92.40
49731;DHT22;35622;52.008;5.426;2023-04-24T07:03:11;14.10;92.10
49731;DHT22;35622;52.008;5.426;2023-04-24T07:05:37;13.90;91.60
49731;DHT22;35622;52.008;5.426;2023-04-24T07:08:03;14.00;91.50
49731;DHT22;35622;52.008;5.426;2023-04-24T07:10:29;14.00;91.30
49731;DHT22;35622;52.008;5.426;2023-04-24T07:12:55;13.90;91.30
49731;DHT22;35622;52.008;5.426;2023-04-24T07:15:22;13.90;91.40
49731;DHT22;35622;52.008;5.426;2023-04-24T07:17:48;13.80;91.50
49731;DHT22;35622;52.008;5.426;2023-04-24T07:20:14;13.80;91.40
49731;DHT22;35622;52.008;5.426;2023-04-24T07:22:40;13.80;91.40
49731;DHT22;35622;52.008;5.426;2023-04-24T07:25:06;13.70;91.20
49731;DHT22;35622;52.008;5.426;2023-04-24T07:27:33;13.60;91.10
49731;DHT22;35622;52.008;5.426;2023-04-24T07:29:59;13.50;91.40
49731;DHT22;35622;52.008;5.426;2023-04-24T07:32:24;13.50;91.50
49731;DHT22;35622;52.008;5.426;2023-04-24T07:34:50;13.40;91.60
49731;DHT22;35622;52.008;5.426;2023-04-24T07:37:16;13.50;91.60
49731;DHT22;35622;52.008;5.426;2023-04-24T07:39:41;13.50;91.40
49731;DHT22;35622;52.008;5.426;2023-04-24T07:42:07;13.50;91.60
49731;DHT22;35622;52.008;5.426;2023-04-24T07:44:33;13.50;91.80
49731;DHT22;35622;52.008;5.426;2023-04-24T07:46:58;13.50;91.70
49731;DHT22;35622;52.008;5.426;2023-04-24T07:49:24;13.50;91.60
49731;DHT22;35622;52.008;5.426;2023-04-24T07:51:50;13.50;91.70
49731;DHT22;35622;52.008;5.426;2023-04-24T07:54:15;13.40;91.90
49731;DHT22;35622;52.008;5.426;2023-04-24T07:56:41;13.50;91.90
49731;DHT22;35622;52.008;5.426;2023-04-24T07:59:08;13.60;91.90
49731;DHT22;35622;52.008;5.426;2023-04-24T08:01:35;13.70;91.80
49731;DHT22;35622;52.008;5.426;2023-04-24T08:04:01;13.80;91.70
49731;DHT22;35622;52.008;5.426;2023-04-24T08:06:26;13.80;91.60
49731;DHT22;35622;52.008;5.426;2023-04-24T08:08:56;13.80;91.90
49731;DHT22;35622;52.008;5.426;2023-04-24T08:11:21;13.80;90.90
49731;DHT22;35622;52.008;5.426;2023-04-24T08:13:47;13.80;91.20
49731;DHT22;35622;52.008;5.426;2023-04-24T08:16:12;13.80;91.30
49731;DHT22;35622;52.008;5.426;2023-04-24T08:18:38;13.80;91.00
49731;DHT22;35622;52.008;5.426;2023-04-24T08:21:04;13.80;90.90
49731;DHT22;35622;52.008;5.426;2023-04-24T08:23:30;13.80;91.00
49731;DHT22;35622;52.008;5.426;2023-04-24T08:25:55;13.80;91.00
49731;DHT22;35622;52.008;5.426;2023-04-24T08:28:21;13.80;90.90
49731;DHT22;35622;52.008;5.426;2023-04-24T08:30:47;13.80;91.10
49731;DHT22;35622;52.008;5.426;2023-04-24T08:33:14;13.80;91.40
49731;DHT22;35622;52.008;5.426;2023-04-24T08:35:39;13.90;91.50
49731;DHT22;35622;52.008;5.426;2023-04-24T08:38:05;14.10;91.10
49731;DHT22;35622;52.008;5.426;2023-04-24T08:40:34;14.20;90.50
49731;DHT22;35622;52.008;5.426;2023-04-24T08:43:00;14.30;90.40
49731;DHT22;35622;52.008;5.426;2023-04-24T08:45:26;14.30;90.10
49731;DHT22;35622;52.008;5.426;2023-04-24T08:47:53;14.30;90.00
49731;DHT22;35622;52.008;5.426;2023-04-24T08:50:20;14.40;89.70
49731;DHT22;35622;52.008;5.426;2023-04-24T08:52:48;14.50;86.90
49731;DHT22;35622;52.008;5.426;2023-04-24T08:55:15;14.30;87.80
49731;DHT22;35622;52.008;5.426;2023-04-24T08:57:42;14.30;88.40
49731;DHT22;35622;52.008;5.426;2023-04-24T09:00:10;14.50;86.40
49731;DHT22;35622;52.008;5.426;2023-04-24T09:02:36;14.40;87.30
49731;DHT22;35622;52.008;5.426;2023-04-24T09:05:04;14.60;88.00
49731;DHT22;35622;52.008;5.426;2023-04-24T09:07:33;14.90;87.00
49731;DHT22;35622;52.008;5.426;2023-04-24T09:10:02;15.00;85.70
49731;DHT22;35622;52.008;5.426;2023-04-24T09:12:27;15.30;82.80
49731;DHT22;35622;52.008;5.426;2023-04-24T09:14:54;15.30;82.70
49731;DHT22;35622;52.008;5.426;2023-04-24T09:17:20;15.30;83.00
49731;DHT22;35622;52.008;5.426;2023-04-24T09:19:48;15.40;82.70
49731;DHT22;35622;52.008;5.426;2023-04-24T09:22:14;15.60;81.70
49731;DHT22;35622;52.008;5.426;2023-04-24T09:24:40;15.40;80.30
49731;DHT22;35622;52.008;5.426;2023-04-24T09:27:07;15.50;80.30
49731;DHT22;35622;52.008;5.426;2023-04-24T09:29:32;15.50;79.70
49731;DHT22;35622;52.008;5.426;2023-04-24T09:31:58;15.50;79.20
49731;DHT22;35622;52.008;5.426;2023-04-24T09:34:25;15.50;79.10
49731;DHT22;35622;52.008;5.426;2023-04-24T09:36:51;15.40;78.90
49731;DHT22;35622;52.008;5.426;2023-04-24T09:39:18;15.40;77.50
49731;DHT22;35622;52.008;5.426;2023-04-24T09:41:53;15.40;75.50
49731;DHT22;35622;52.008;5.426;2023-04-24T09:44:19;15.50;76.80
49731;DHT22;35622;52.008;5.426;2023-04-24T09:46:59;15.80;77.00
49731;DHT22;35622;52.008;5.426;2023-04-24T09:49:26;16.20;76.60
49731;DHT22;35622;52.008;5.426;2023-04-24T09:52:02;16.70;75.50
49731;DHT22;35622;52.008;5.426;2023-04-24T09:54:27;17.10;74.00
49731;DHT22;35622;52.008;5.426;2023-04-24T09:56:55;17.30;71.10
49731;DHT22;35622;52.008;5.426;2023-04-24T09:59:22;17.30;68.40
49731;DHT22;35622;52.008;5.426;2023-04-24T10:01:47;17.20;66.70
49731;DHT22;35622;52.008;5.426;2023-04-24T10:04:19;17.20;67.10
49731;DHT22;35622;52.008;5.426;2023-04-24T10:06:46;17.10;66.20
49731;DHT22;35622;52.008;5.426;2023-04-24T10:09:12;16.90;66.70
49731;DHT22;35622;52.008;5.426;2023-04-24T10:11:45;17.10;67.90
49731;DHT22;35622;52.008;5.426;2023-04-24T10:14:19;17.40;67.60
49731;DHT22;35622;52.008;5.426;2023-04-24T10:16:47;17.60;66.60
49731;DHT22;35622;52.008;5.426;2023-04-24T10:19:14;17.80;65.00
49731;DHT22;35622;52.008;5.426;2023-04-24T10:21:41;17.90;58.50
49731;DHT22;35622;52.008;5.426;2023-04-24T10:24:08;17.80;59.50
49731;DHT22;35622;52.008;5.426;2023-04-24T10:26:35;17.70;60.80
49731;DHT22;35622;52.008;5.426;2023-04-24T10:29:01;17.70;59.80
49731;DHT22;35622;52.008;5.426;2023-04-24T10:31:29;17.50;59.90
49731;DHT22;35622;52.008;5.426;2023-04-24T10:33:56;17.20;61.40
49731;DHT22;35622;52.008;5.426;2023-04-24T10:36:24;17.10;62.50
49731;DHT22;35622;52.008;5.426;2023-04-24T10:38:52;16.90;62.40
49731;DHT22;35622;52.008;5.426;2023-04-24T10:41:20;16.80;61.80
49731;DHT22;35622;52.008;5.426;2023-04-24T10:44:07;16.80;62.30
49731;DHT22;35622;52.008;5.426;2023-04-24T10:46:34;16.70;62.80
49731;DHT22;35622;52.008;5.426;2023-04-24T10:49:04;17.00;62.20
49731;DHT22;35622;52.008;5.426;2023-04-24T10:51:48;17.30;62.20
49731;DHT22;35622;52.008;5.426;2023-04-24T10:54:34;17.50;61.60
49731;DHT22;35622;52.008;5.426;2023-04-24T10:59:44;17.40;59.40
49731;DHT22;35622;52.008;5.426;2023-04-24T11:02:10;17.40;59.80
49731;DHT22;35622;52.008;5.426;2023-04-24T11:04:36;17.60;59.50
49731;DHT22;35622;52.008;5.426;2023-04-24T11:07:05;17.60;60.20
49731;DHT22;35622;52.008;5.426;2023-04-24T11:09:32;17.80;59.90
49731;DHT22;35622;52.008;5.426;2023-04-24T11:12:08;18.30;59.10
49731;DHT22;35622;52.008;5.426;2023-04-24T11:17:37;20.80;57.90
49731;DHT22;35622;52.008;5.426;2023-04-24T11:20:06;24.50;48.80
49731;DHT22;35622;52.008;5.426;2023-04-24T11:22:37;25.20;41.50
49731;DHT22;35622;52.008;5.426;2023-04-24T11:25:04;24.30;39.20
49731;DHT22;35622;52.008;5.426;2023-04-24T11:27:31;23.30;41.50
49731;DHT22;35622;52.008;5.426;2023-04-24T11:32:28;21.50;44.00
49731;DHT22;35622;52.008;5.426;2023-04-24T11:34:56;20.40;44.40
49731;DHT22;35622;52.008;5.426;2023-04-24T11:37:23;19.70;47.20
49731;DHT22;35622;52.008;5.426;2023-04-24T11:39:51;19.00;49.00
49731;DHT22;35622;52.008;5.426;2023-04-24T11:42:18;18.40;51.20
49731;DHT22;35622;52.008;5.426;2023-04-24T11:44:46;17.80;52.30
49731;DHT22;35622;52.008;5.426;2023-04-24T11:47:12;17.30;54.40
49731;DHT22;35622;52.008;5.426;2023-04-24T11:49:38;17.00;56.00
49731;DHT22;35622;52.008;5.426;2023-04-24T11:52:04;16.60;56.60
49731;DHT22;35622;52.008;5.426;2023-04-24T11:54:30;16.30;58.60
49731;DHT22;35622;52.008;5.426;2023-04-24T11:56:56;16.10;59.90
49731;DHT22;35622;52.008;5.426;2023-04-24T11:59:22;16.30;60.60
49731;DHT22;35622;52.008;5.426;2023-04-24T12:01:48;16.80;60.60
49731;DHT22;35622;52.008;5.426;2023-04-24T12:04:16;17.70;58.60
49731;DHT22;35622;52.008;5.426;2023-04-24T12:07:04;18.10;56.30
49731;DHT22;35622;52.008;5.426;2023-04-24T12:09:47;18.60;54.90
49731;DHT22;35622;52.008;5.426;2023-04-24T12:12:17;19.20;54.90
49731;DHT22;35622;52.008;5.426;2023-04-24T12:14:44;19.40;53.10
49731;DHT22;35622;52.008;5.426;2023-04-24T12:17:10;19.20;51.40
49731;DHT22;35622;52.008;5.426;2023-04-24T12:19:36;19.20;50.40
49731;DHT22;35622;52.008;5.426;2023-04-24T12:22:05;18.90;50.10
49731;DHT22;35622;52.008;5.426;2023-04-24T12:24:31;18.50;50.70
49731;DHT22;35622;52.008;5.426;2023-04-24T12:26:58;18.40;51.90
49731;DHT22;35622;52.008;5.426;2023-04-24T12:29:24;18.40;52.30
49731;DHT22;35622;52.008;5.426;2023-04-24T12:31:51;18.70;52.40
49731;DHT22;35622;52.008;5.426;2023-04-24T12:34:21;18.80;51.40
49731;DHT22;35622;52.008;5.426;2023-04-24T12:36:47;18.90;51.70
49731;DHT22;35622;52.008;5.426;2023-04-24T12:39:20;19.00;50.40
49731;DHT22;35622;52.008;5.426;2023-04-24T12:41:58;19.10;49.40
49731;DHT22;35622;52.008;5.426;2023-04-24T12:44:35;18.90;50.00
49731;DHT22;35622;52.008;5.426;2023-04-24T12:47:02;18.80;49.60
49731;DHT22;35622;52.008;5.426;2023-04-24T12:49:29;18.80;49.60
49731;DHT22;35622;52.008;5.426;2023-04-24T12:51:55;18.50;49.50
49731;DHT22;35622;52.008;5.426;2023-04-24T12:54:21;18.40;50.50
49731;DHT22;35622;52.008;5.426;2023-04-24T12:56:47;18.40;50.70
49731;DHT22;35622;52.008;5.426;2023-04-24T12:59:13;18.20;50.70
49731;DHT22;35622;52.008;5.426;2023-04-24T13:01:38;18.10;50.70
49731;DHT22;35622;52.008;5.426;2023-04-24T13:04:05;18.20;50.00
49731;DHT22;35622;52.008;5.426;2023-04-24T13:06:30;18.10;50.30
49731;DHT22;35622;52.008;5.426;2023-04-24T13:08:56;18.20;50.80
49731;DHT22;35622;52.008;5.426;2023-04-24T13:11:23;18.30;51.50
49731;DHT22;35622;52.008;5.426;2023-04-24T13:13:49;18.40;50.90
49731;DHT22;35622;52.008;5.426;2023-04-24T13:16:15;18.40;49.70
49731;DHT22;35622;52.008;5.426;2023-04-24T13:18:41;18.20;49.80
49731;DHT22;35622;52.008;5.426;2023-04-24T13:21:06;17.80;50.50
49731;DHT22;35622;52.008;5.426;2023-04-24T13:23:32;17.50;50.10
49731;DHT22;35622;52.008;5.426;2023-04-24T13:25:57;17.40;52.70
49731;DHT22;35622;52.008;5.426;2023-04-24T13:28:24;17.70;51.80
49731;DHT22;35622;52.008;5.426;2023-04-24T13:30:51;18.00;50.30
49731;DHT22;35622;52.008;5.426;2023-04-24T13:33:16;18.10;49.30
49731;DHT22;35622;52.008;5.426;2023-04-24T13:35:42;18.20;49.50
49731;DHT22;35622;52.008;5.426;2023-04-24T13:38:07;18.30;48.70
49731;DHT22;35622;52.008;5.426;2023-04-24T13:40:33;18.30;48.70
49731;DHT22;35622;52.008;5.426;2023-04-24T13:42:59;18.50;49.00
49731;DHT22;35622;52.008;5.426;2023-04-24T13:45:25;18.50;49.30
49731;DHT22;35622;52.008;5.426;2023-04-24T13:47:50;18.50;47.40
49731;DHT22;35622;52.008;5.426;2023-04-24T13:50:16;18.30;47.50
49731;DHT22;35622;52.008;5.426;2023-04-24T13:52:41;18.30;48.40
49731;DHT22;35622;52.008;5.426;2023-04-24T13:55:07;18.50;44.00
49731;DHT22;35622;52.008;5.426;2023-04-24T13:57:33;18.40;44.80
49731;DHT22;35622;52.008;5.426;2023-04-24T13:59:59;18.40;45.40
49731;DHT22;35622;52.008;5.426;2023-04-24T14:02:29;18.40;44.00
49731;DHT22;35622;52.008;5.426;2023-04-24T14:04:55;18.30;45.00
49731;DHT22;35622;52.008;5.426;2023-04-24T14:07:20;18.30;46.30
49731;DHT22;35622;52.008;5.426;2023-04-24T14:09:46;18.00;46.20
49731;DHT22;35622;52.008;5.426;2023-04-24T14:12:11;18.00;46.10
49731;DHT22;35622;52.008;5.426;2023-04-24T14:14:38;17.90;46.90
49731;DHT22;35622;52.008;5.426;2023-04-24T14:17:03;17.90;46.40
49731;DHT22;35622;52.008;5.426;2023-04-24T14:19:29;18.20;47.40
49731;DHT22;35622;52.008;5.426;2023-04-24T14:21:54;18.50;46.50
49731;DHT22;35622;52.008;5.426;2023-04-24T14:24:22;18.70;45.70
49731;DHT22;35622;52.008;5.426;2023-04-24T14:26:47;18.90;45.60
49731;DHT22;35622;52.008;5.426;2023-04-24T14:29:13;19.00;44.20
49731;DHT22;35622;52.008;5.426;2023-04-24T14:31:38;19.10;45.90
49731;DHT22;35622;52.008;5.426;2023-04-24T14:34:04;19.10;44.70
49731;DHT22;35622;52.008;5.426;2023-04-24T14:36:29;19.00;44.10
49731;DHT22;35622;52.008;5.426;2023-04-24T14:38:56;19.00;44.90
49731;DHT22;35622;52.008;5.426;2023-04-24T14:41:22;19.10;44.20
49731;DHT22;35622;52.008;5.426;2023-04-24T14:43:47;19.20;44.60
49731;DHT22;35622;52.008;5.426;2023-04-24T14:46:13;19.10;44.00
49731;DHT22;35622;52.008;5.426;2023-04-24T14:48:39;19.00;44.10
49731;DHT22;35622;52.008;5.426;2023-04-24T14:51:04;18.90;44.40
49731;DHT22;35622;52.008;5.426;2023-04-24T14:53:30;18.50;44.10
49731;DHT22;35622;52.008;5.426;2023-04-24T14:55:56;18.00;44.40
49731;DHT22;35622;52.008;5.426;2023-04-24T14:58:21;17.80;44.80
49731;DHT22;35622;52.008;5.426;2023-04-24T15:00:47;17.60;45.10
49731;DHT22;35622;52.008;5.426;2023-04-24T15:03:15;17.30;46.40
49731;DHT22;35622;52.008;5.426;2023-04-24T15:05:41;17.30;47.70
49731;DHT22;35622;52.008;5.426;2023-04-24T15:08:06;17.30;47.20
49731;DHT22;35622;52.008;5.426;2023-04-24T15:10:32;17.00;47.50
49731;DHT22;35622;52.008;5.426;2023-04-24T15:12:58;16.90;49.00
49731;DHT22;35622;52.008;5.426;2023-04-24T15:15:24;16.80;49.40
49731;DHT22;35622;52.008;5.426;2023-04-24T15:17:49;16.90;50.40
49731;DHT22;35622;52.008;5.426;2023-04-24T15:20:15;17.10;50.70
49731;DHT22;35622;52.008;5.426;2023-04-24T15:22:41;17.20;50.70
49731;DHT22;35622;52.008;5.426;2023-04-24T15:25:07;17.30;50.80
49731;DHT22;35622;52.008;5.426;2023-04-24T15:27:40;17.50;50.70
49731;DHT22;35622;52.008;5.426;2023-04-24T15:30:06;17.60;49.10
49731;DHT22;35622;52.008;5.426;2023-04-24T15:32:32;17.60;47.80
49731;DHT22;35622;52.008;5.426;2023-04-24T15:34:58;17.60;48.30